sensor_id;sensor_type;location;lat;lon;timestamp;pressure;altitude;pressure_sealevel;temperature;humidity
55994;BME280;67425;52.126;20.638;2023-06-26T00:00:22;57616.03;;;-144.78;100.00
55994;BME280;67425;52.126;20.638;2023-06-26T00:02:47;57613.94;;;-144.78;100.00
55994;BME280;67425;52.126;20.638;2023-06-26T00:05:12;57605.66;;;-144.78;100.00
55994;BME280;67425;52.126;20.638;2023-06-26T00:07:38;57609.78;;;-144.78;100.00
55994;BME280;67425;52.126;20.638;2023-06-26T00:10:04;57603.56;;;-144.78;100.00
55994;BME280;67425;52.126;20.638;2023-06-26T00:12:30;57601.50;;;-144.78;100.00
55994;BME280;67425;52.126;20.638;2023-06-26T00:14:57;57613.94;;;-144.78;100.00
55994;BME280;67425;52.126;20.638;2023-06-26T00:17:22;57611.88;;;-144.78;100.00
55994;BME280;67425;52.126;20.638;2023-06-26T00:19:48;57626.41;;;-144.78;100.00
55994;BME280;67425;52.126;20.638;2023-06-26T00:22:13;57634.72;;;-144.78;100.00
55994;BME280;67425;52.126;20.638;2023-06-26T00:24:39;57605.66;;;-144.78;100.00
55994;BME280;67425;52.126;20.638;2023-06-26T00:27:04;57618.09;;;-144.78;100.00
55994;BME280;67425;52.126;20.638;2023-06-26T00:29:30;57601.50;;;-144.78;100.00
55994;BME280;67425;52.126;20.638;2023-06-26T00:31:55;57607.72;;;-144.78;100.00
55994;BME280;67425;52.126;20.638;2023-06-26T00:34:20;57611.88;;;-144.78;100.00
55994;BME280;67425;52.126;20.638;2023-06-26T00:36:46;57605.66;;;-144.78;100.00
55994;BME280;67425;52.126;20.638;2023-06-26T00:39:11;57626.41;;;-144.78;100.00
55994;BME280;67425;52.126;20.638;2023-06-26T00:41:37;57586.94;;;-144.78;100.00
55994;BME280;67425;52.126;20.638;2023-06-26T00:44:05;57605.66;;;-144.78;100.00
55994;BME280;67425;52.126;20.638;2023-06-26T00:46:32;57607.72;;;-144.78;100.00
55994;BME280;67425;52.126;20.638;2023-06-26T00:49:02;57599.41;;;-144.78;100.00
55994;BME280;67425;52.126;20.638;2023-06-26T00:51:29;57618.09;;;-144.78;100.00
55994;BME280;67425;52.126;20.638;2023-06-26T00:53:54;57609.78;;;-144.78;100.00
55994;BME280;67425;52.126;20.638;2023-06-26T00:56:20;57584.88;;;-144.78;100.00
55994;BME280;67425;52.126;20.638;2023-06-26T00:58:45;57605.66;;;-144.78;100.00
55994;BME280;67425;52.126;20.638;2023-06-26T01:01:12;57620.19;;;-144.78;100.00
55994;BME280;67425;52.126;20.638;2023-06-26T01:03:43;57620.19;;;-144.78;100.00
55994;BME280;67425;52.126;20.638;2023-06-26T01:06:10;57609.78;;;-144.78;100.00
55994;BME280;67425;52.126;20.638;2023-06-26T01:08:37;57609.78;;;-144.78;100.00
55994;BME280;67425;52.126;20.638;2023-06-26T01:11:04;57609.78;;;-144.78;100.00
55994;BME280;67425;52.126;20.638;2023-06-26T01:13:29;57618.09;;;-144.78;100.00
55994;BME280;67425;52.126;20.638;2023-06-26T01:15:56;57607.72;;;-144.78;100.00
55994;BME280;67425;52.126;20.638;2023-06-26T01:18:22;57620.19;;;-144.78;100.00
55994;BME280;67425;52.126;20.638;2023-06-26T01:20:48;57613.94;;;-144.78;100.00
55994;BME280;67425;52.126;20.638;2023-06-26T01:26:19;57613.94;;;-144.78;100.00
55994;BME280;67425;52.126;20.638;2023-06-26T01:28:46;57616.03;;;-144.78;100.00
55994;BME280;67425;52.126;20.638;2023-06-26T01:31:13;57638.88;;;-144.78;100.00
55994;BME280;67425;52.126;20.638;2023-06-26T01:33:40;57601.50;;;-144.78;100.00
55994;BME280;67425;52.126;20.638;2023-06-26T01:36:06;57643.03;;;-144.78;100.00
55994;BME280;67425;52.126;20.638;2023-06-26T01:38:31;57609.78;;;-144.78;100.00
55994;BME280;67425;52.126;20.638;2023-06-26T01:40:57;57636.78;;;-144.78;100.00
55994;BME280;67425;52.126;20.638;2023-06-26T01:43:31;57640.94;;;-144.78;100.00
55994;BME280;67425;52.126;20.638;2023-06-26T01:46:06;57626.41;;;-144.78;100.00
55994;BME280;67425;52.126;20.638;2023-06-26T01:51:24;57630.56;;;-144.78;100.00
55994;BME280;67425;52.126;20.638;2023-06-26T01:53:53;57628.50;;;-144.78;100.00
55994;BME280;67425;52.126;20.638;2023-06-26T01:56:23;57622.25;;;-144.78;100.00
55994;BME280;67425;52.126;20.638;2023-06-26T01:58:49;57628.50;;;-144.78;100.00
55994;BME280;67425;52.126;20.638;2023-06-26T02:01:18;57632.66;;;-144.78;100.00
55994;BME280;67425;52.126;20.638;2023-06-26T02:03:43;57651.34;;;-144.78;100.00
55994;BME280;67425;52.126;20.638;2023-06-26T02:06:09;57634.72;;;-144.78;100.00
55994;BME280;67425;52.126;20.638;2023-06-26T02:08:34;57657.56;;;-144.78;100.00
55994;BME280;67425;52.126;20.638;2023-06-26T02:10:59;57640.94;;;-144.78;100.00
55994;BME280;67425;52.126;20.638;2023-06-26T02:13:25;57630.56;;;-144.78;100.00
55994;BME280;67425;52.126;20.638;2023-06-26T02:15:50;57649.25;;;-144.78;100.00
55994;BME280;67425;52.126;20.638;2023-06-26T02:18:15;57651.34;;;-144.78;100.00
55994;BME280;67425;52.126;20.638;2023-06-26T02:20:41;57640.94;;;-144.78;100.00
55994;BME280;67425;52.126;20.638;2023-06-26T02:23:06;57636.78;;;-144.78;100.00
55994;BME280;67425;52.126;20.638;2023-06-26T02:25:31;57651.34;;;-144.78;100.00
55994;BME280;67425;52.126;20.638;2023-06-26T02:27:57;57670.03;;;-144.78;100.00
55994;BME280;67425;52.126;20.638;2023-06-26T02:30:22;57670.03;;;-144.78;100.00
55994;BME280;67425;52.126;20.638;2023-06-26T02:32:47;57651.34;;;-144.78;100.00
55994;BME280;67425;52.126;20.638;2023-06-26T02:35:13;57663.78;;;-144.78;100.00
55994;BME280;67425;52.126;20.638;2023-06-26T02:37:38;57655.50;;;-144.78;100.00
55994;BME280;67425;52.126;20.638;2023-06-26T02:40:04;57651.34;;;-144.78;100.00
55994;BME280;67425;52.126;20.638;2023-06-26T02:42:31;57655.50;;;-144.78;100.00
55994;BME280;67425;52.126;20.638;2023-06-26T02:44:57;57661.72;;;-144.78;100.00
55994;BME280;67425;52.126;20.638;2023-06-26T02:47:22;57645.09;;;-144.78;100.00
55994;BME280;67425;52.126;20.638;2023-06-26T02:49:47;57655.50;;;-144.78;100.00
55994;BME280;67425;52.126;20.638;2023-06-26T02:52:13;57651.34;;;-144.78;100.00
55994;BME280;67425;52.126;20.638;2023-06-26T02:54:38;57651.34;;;-144.78;100.00
55994;BME280;67425;52.126;20.638;2023-06-26T02:57:03;57647.19;;;-144.78;100.00
55994;BME280;67425;52.126;20.638;2023-06-26T02:59:29;57651.34;;;-144.78;100.00
55994;BME280;67425;52.126;20.638;2023-06-26T03:01:54;57649.25;;;-144.78;100.00
55994;BME280;67425;52.126;20.638;2023-06-26T03:04:19;57647.19;;;-144.78;100.00
55994;BME280;67425;52.126;20.638;2023-06-26T03:06:46;57653.41;;;-144.78;100.00
55994;BME280;67425;52.126;20.638;2023-06-26T03:09:12;57653.41;;;-144.78;100.00
55994;BME280;67425;52.126;20.638;2023-06-26T03:11:37;57649.25;;;-144.78;100.00
55994;BME280;67425;52.126;20.638;2023-06-26T03:14:02;57630.56;;;-144.78;100.00
55994;BME280;67425;52.126;20.638;2023-06-26T03:16:28;57638.88;;;-144.78;100.00
55994;BME280;67425;52.126;20.638;2023-06-26T03:18:53;57640.94;;;-144.78;100.00
55994;BME280;67425;52.126;20.638;2023-06-26T03:21:18;57645.09;;;-144.78;100.00
55994;BME280;67425;52.126;20.638;2023-06-26T03:23:44;57647.19;;;-144.78;100.00
55994;BME280;67425;52.126;20.638;2023-06-26T03:26:09;57659.63;;;-144.78;100.00
55994;BME280;67425;52.126;20.638;2023-06-26T03:28:34;57647.19;;;-144.78;100.00
55994;BME280;67425;52.126;20.638;2023-06-26T03:31:00;57647.19;;;-144.78;100.00
55994;BME280;67425;52.126;20.638;2023-06-26T03:33:25;57626.41;;;-144.78;100.00
55994;BME280;67425;52.126;20.638;2023-06-26T03:35:50;57634.72;;;-144.78;100.00
55994;BME280;67425;52.126;20.638;2023-06-26T03:38:16;57622.25;;;-144.78;100.00
55994;BME280;67425;52.126;20.638;2023-06-26T03:40:41;57628.50;;;-144.78;100.00
55994;BME280;67425;52.126;20.638;2023-06-26T03:43:07;57626.41;;;-144.78;100.00
55994;BME280;67425;52.126;20.638;2023-06-26T03:45:32;57616.03;;;-144.78;100.00
55994;BME280;67425;52.126;20.638;2023-06-26T03:47:57;57624.34;;;-144.78;100.00
55994;BME280;67425;52.126;20.638;2023-06-26T03:50:23;57622.25;;;-144.78;100.00
55994;BME280;67425;52.126;20.638;2023-06-26T03:52:48;57616.03;;;-144.78;100.00
55994;BME280;67425;52.126;20.638;2023-06-26T03:55:15;57589.03;;;-144.78;100.00
55994;BME280;67425;52.126;20.638;2023-06-26T03:57:41;57622.25;;;-144.78;100.00
55994;BME280;67425;52.126;20.638;2023-06-26T04:00:06;57580.72;;;-144.78;100.00
55994;BME280;67425;52.126;20.638;2023-06-26T04:02:37;57593.19;;;-144.78;100.00
55994;BME280;67425;52.126;20.638;2023-06-26T04:05:03;57572.41;;;-144.78;100.00
55994;BME280;67425;52.126;20.638;2023-06-26T04:07:30;57616.03;;;-144.78;100.00
55994;BME280;67425;52.126;20.638;2023-06-26T04:09:56;57601.50;;;-144.78;100.00
55994;BME280;67425;52.126;20.638;2023-06-26T04:12:22;57603.56;;;-144.78;100.00
55994;BME280;67425;52.126;20.638;2023-06-26T04:14:47;57589.03;;;-144.78;100.00
55994;BME280;67425;52.126;20.638;2023-06-26T04:17:12;57559.97;;;-144.78;100.00
55994;BME280;67425;52.126;20.638;2023-06-26T04:19:38;57553.72;;;-144.78;100.00
55994;BME280;67425;52.126;20.638;2023-06-26T04:22:03;57599.41;;;-144.78;100.00
55994;BME280;67425;52.126;20.638;2023-06-26T04:24:29;57578.66;;;-144.78;100.00
55994;BME280;67425;52.126;20.638;2023-06-26T04:26:54;57564.09;;;-144.78;100.00
55994;BME280;67425;52.126;20.638;2023-06-26T04:29:22;57580.72;;;-144.78;100.00
55994;BME280;67425;52.126;20.638;2023-06-26T04:31:51;57551.66;;;-144.78;100.00
55994;BME280;67425;52.126;20.638;2023-06-26T04:34:16;57543.34;;;-144.78;100.00
55994;BME280;67425;52.126;20.638;2023-06-26T04:36:41;57562.03;;;-144.78;100.00
55994;BME280;67425;52.126;20.638;2023-06-26T04:39:11;57541.25;;;-144.78;100.00
55994;BME280;67425;52.126;20.638;2023-06-26T04:41:37;57553.72;;;-144.78;100.00
55994;BME280;67425;52.126;20.638;2023-06-26T04:44:02;57545.41;;;-144.78;100.00
55994;BME280;67425;52.126;20.638;2023-06-26T04:46:28;57551.66;;;-144.78;100.00
55994;BME280;67425;52.126;20.638;2023-06-26T04:48:53;57555.81;;;-144.78;100.00
55994;BME280;67425;52.126;20.638;2023-06-26T04:51:18;57551.66;;;-144.78;100.00
55994;BME280;67425;52.126;20.638;2023-06-26T04:53:46;57535.03;;;-144.78;100.00
55994;BME280;67425;52.126;20.638;2023-06-26T04:56:11;57524.66;;;-144.78;100.00
55994;BME280;67425;52.126;20.638;2023-06-26T04:58:36;57537.09;;;-144.78;100.00
55994;BME280;67425;52.126;20.638;2023-06-26T05:01:02;57526.72;;;-144.78;100.00
55994;BME280;67425;52.126;20.638;2023-06-26T05:03:27;57493.50;;;-144.78;100.00
55994;BME280;67425;52.126;20.638;2023-06-26T05:05:52;57530.88;;;-144.78;100.00
55994;BME280;67425;52.126;20.638;2023-06-26T05:08:21;57520.50;;;-144.78;100.00
55994;BME280;67425;52.126;20.638;2023-06-26T05:10:47;57539.19;;;-144.78;100.00
55994;BME280;67425;52.126;20.638;2023-06-26T05:13:13;57522.56;;;-144.78;100.00
55994;BME280;67425;52.126;20.638;2023-06-26T05:15:41;57503.88;;;-144.78;100.00
55994;BME280;67425;52.126;20.638;2023-06-26T05:18:07;57528.81;;;-144.78;100.00
55994;BME280;67425;52.126;20.638;2023-06-26T05:20:34;57516.34;;;-144.78;100.00
55994;BME280;67425;52.126;20.638;2023-06-26T05:23:01;57524.66;;;-144.78;100.00
55994;BME280;67425;52.126;20.638;2023-06-26T05:25:27;57524.66;;;-144.78;100.00
55994;BME280;67425;52.126;20.638;2023-06-26T05:27:54;57514.25;;;-144.78;100.00
55994;BME280;67425;52.126;20.638;2023-06-26T05:30:20;57501.81;;;-144.78;100.00
55994;BME280;67425;52.126;20.638;2023-06-26T05:32:46;57499.72;;;-144.78;100.00
55994;BME280;67425;52.126;20.638;2023-06-26T05:35:12;57495.56;;;-144.78;100.00
55994;BME280;67425;52.126;20.638;2023-06-26T05:37:38;57514.25;;;-144.78;100.00
55994;BME280;67425;52.126;20.638;2023-06-26T05:40:04;57497.66;;;-144.78;100.00
55994;BME280;67425;52.126;20.638;2023-06-26T05:42:30;57508.03;;;-144.78;100.00
55994;BME280;67425;52.126;20.638;2023-06-26T05:44:56;57489.34;;;-144.78;100.00
55994;BME280;67425;52.126;20.638;2023-06-26T05:47:22;57476.88;;;-144.78;100.00
55994;BME280;67425;52.126;20.638;2023-06-26T05:49:47;57483.13;;;-144.78;100.00
55994;BME280;67425;52.126;20.638;2023-06-26T05:52:13;57481.03;;;-144.78;100.00
55994;BME280;67425;52.126;20.638;2023-06-26T05:54:39;57462.34;;;-144.78;100.00
55994;BME280;67425;52.126;20.638;2023-06-26T05:57:04;57481.03;;;-144.78;100.00
55994;BME280;67425;52.126;20.638;2023-06-26T05:59:33;57460.28;;;-144.78;100.00
55994;BME280;67425;52.126;20.638;2023-06-26T06:02:01;57470.66;;;-144.78;100.00
55994;BME280;67425;52.126;20.638;2023-06-26T06:04:27;57470.66;;;-144.78;100.00
55994;BME280;67425;52.126;20.638;2023-06-26T06:06:52;57470.66;;;-144.78;100.00
55994;BME280;67425;52.126;20.638;2023-06-26T06:09:17;57474.81;;;-144.78;100.00
55994;BME280;67425;52.126;20.638;2023-06-26T06:11:43;57470.66;;;-144.78;100.00
55994;BME280;67425;52.126;20.638;2023-06-26T06:14:08;57497.66;;;-144.78;100.00
55994;BME280;67425;52.126;20.638;2023-06-26T06:16:33;57460.28;;;-144.78;100.00
55994;BME280;67425;52.126;20.638;2023-06-26T06:18:59;57439.50;;;-144.78;100.00
55994;BME280;67425;52.126;20.638;2023-06-26T06:21:24;57431.19;;;-144.78;100.00
55994;BME280;67425;52.126;20.638;2023-06-26T06:23:49;57470.66;;;-144.78;100.00
55994;BME280;67425;52.126;20.638;2023-06-26T06:26:15;57429.13;;;-144.78;100.00
55994;BME280;67425;52.126;20.638;2023-06-26T06:28:40;57418.72;;;-144.78;100.00
55994;BME280;67425;52.126;20.638;2023-06-26T06:31:05;57451.97;;;-144.78;100.00
55994;BME280;67425;52.126;20.638;2023-06-26T06:33:31;57445.72;;;-144.78;100.00
55994;BME280;67425;52.126;20.638;2023-06-26T06:35:56;57418.72;;;-144.78;100.00
55994;BME280;67425;52.126;20.638;2023-06-26T06:38:22;57443.66;;;-144.78;100.00
55994;BME280;67425;52.126;20.638;2023-06-26T06:40:48;57416.66;;;-144.78;100.00
55994;BME280;67425;52.126;20.638;2023-06-26T06:43:13;57424.97;;;-144.78;100.00
55994;BME280;67425;52.126;20.638;2023-06-26T06:45:39;57429.13;;;-144.78;100.00
55994;BME280;67425;52.126;20.638;2023-06-26T06:48:04;57402.13;;;-144.78;100.00
55994;BME280;67425;52.126;20.638;2023-06-26T06:50:30;57404.19;;;-144.78;99.78
55994;BME280;67425;52.126;20.638;2023-06-26T06:52:56;57377.19;;;-144.78;96.49
55994;BME280;67425;52.126;20.638;2023-06-26T06:55:21;57414.59;;;-144.78;94.14
55994;BME280;67425;52.126;20.638;2023-06-26T06:57:47;57422.88;;;-144.78;96.77
55994;BME280;67425;52.126;20.638;2023-06-26T07:00:13;57456.13;;;-144.78;96.59
55994;BME280;67425;52.126;20.638;2023-06-26T07:02:45;57447.81;;;-144.78;97.33
55994;BME280;67425;52.126;20.638;2023-06-26T07:05:12;57445.72;;;-144.78;97.80
55994;BME280;67425;52.126;20.638;2023-06-26T07:07:38;57422.88;;;-144.78;96.03
55994;BME280;67425;52.126;20.638;2023-06-26T07:10:06;57400.03;;;-144.78;97.78
55994;BME280;67425;52.126;20.638;2023-06-26T07:12:33;57418.72;;;-144.78;97.73
55994;BME280;67425;52.126;20.638;2023-06-26T07:15:00;57389.66;;;-144.78;100.00
55994;BME280;67425;52.126;20.638;2023-06-26T07:17:26;57437.44;;;-144.78;97.25
55994;BME280;67425;52.126;20.638;2023-06-26T07:19:51;57393.81;;;-144.78;98.61
55994;BME280;67425;52.126;20.638;2023-06-26T07:22:17;57410.44;;;-144.78;98.52
55994;BME280;67425;52.126;20.638;2023-06-26T07:24:45;57439.50;;;-144.78;95.68
55994;BME280;67425;52.126;20.638;2023-06-26T07:27:10;57449.88;;;-144.78;95.33
55994;BME280;67425;52.126;20.638;2023-06-26T07:29:36;57389.66;;;-144.78;95.45
55994;BME280;67425;52.126;20.638;2023-06-26T07:32:01;57391.75;;;-144.78;89.57
55994;BME280;67425;52.126;20.638;2023-06-26T07:34:26;57368.91;;;-144.78;90.75
55994;BME280;67425;52.126;20.638;2023-06-26T07:36:51;57416.66;;;-144.78;90.19
55994;BME280;67425;52.126;20.638;2023-06-26T07:39:17;57408.34;;;-144.78;86.61
55994;BME280;67425;52.126;20.638;2023-06-26T07:41:42;57406.28;;;-144.78;87.68
55994;BME280;67425;52.126;20.638;2023-06-26T07:44:07;57395.88;;;-144.78;87.78
55994;BME280;67425;52.126;20.638;2023-06-26T07:46:33;57429.13;;;-144.78;87.30
55994;BME280;67425;52.126;20.638;2023-06-26T07:48:58;57402.13;;;-144.78;68.75
55994;BME280;67425;52.126;20.638;2023-06-26T07:51:23;57416.66;;;-144.78;65.66
55994;BME280;67425;52.126;20.638;2023-06-26T07:53:49;57391.75;;;-144.78;66.89
55994;BME280;67425;52.126;20.638;2023-06-26T07:56:14;57391.75;;;-144.78;66.43
55994;BME280;67425;52.126;20.638;2023-06-26T07:58:40;57393.81;;;-144.78;68.17
55994;BME280;67425;52.126;20.638;2023-06-26T08:01:05;57412.50;;;-144.78;68.21
55994;BME280;67425;52.126;20.638;2023-06-26T08:03:30;57370.97;;;-144.78;66.75
55994;BME280;67425;52.126;20.638;2023-06-26T08:05:56;57402.13;;;-144.78;67.48
55994;BME280;67425;52.126;20.638;2023-06-26T08:08:21;57391.75;;;-144.78;66.56
55994;BME280;67425;52.126;20.638;2023-06-26T08:10:46;57400.03;;;-144.78;66.72
55994;BME280;67425;52.126;20.638;2023-06-26T08:13:12;57377.19;;;-144.78;65.23
55994;BME280;67425;52.126;20.638;2023-06-26T08:15:37;57412.50;;;-144.78;63.63
55994;BME280;67425;52.126;20.638;2023-06-26T08:18:02;57408.34;;;-144.78;64.16
55994;BME280;67425;52.126;20.638;2023-06-26T08:20:28;57387.59;;;-144.78;63.29
55994;BME280;67425;52.126;20.638;2023-06-26T08:22:53;57393.81;;;-144.78;63.02
55994;BME280;67425;52.126;20.638;2023-06-26T08:25:19;57397.97;;;-144.78;63.46
55994;BME280;67425;52.126;20.638;2023-06-26T08:27:45;57393.81;;;-144.78;61.73
55994;BME280;67425;52.126;20.638;2023-06-26T08:30:11;57393.81;;;-144.78;55.36
55994;BME280;67425;52.126;20.638;2023-06-26T08:32:36;57389.66;;;-144.78;55.29
55994;BME280;67425;52.126;20.638;2023-06-26T08:35:01;57397.97;;;-144.78;53.88
55994;BME280;67425;52.126;20.638;2023-06-26T08:37:27;57404.19;;;-144.78;48.66
55994;BME280;67425;52.126;20.638;2023-06-26T08:39:52;57410.44;;;-144.78;48.91
55994;BME280;67425;52.126;20.638;2023-06-26T08:42:17;57375.13;;;-144.78;48.59
55994;BME280;67425;52.126;20.638;2023-06-26T08:44:43;57404.19;;;-144.78;50.14
55994;BME280;67425;52.126;20.638;2023-06-26T08:47:11;57402.13;;;-144.78;47.96
55994;BME280;67425;52.126;20.638;2023-06-26T08:49:49;57375.13;;;-144.78;47.03
55994;BME280;67425;52.126;20.638;2023-06-26T08:52:23;57410.44;;;-144.78;44.96
55994;BME280;67425;52.126;20.638;2023-06-26T08:54:55;57389.66;;;-144.78;45.22
55994;BME280;67425;52.126;20.638;2023-06-26T08:57:23;57391.75;;;-144.78;38.52
55994;BME280;67425;52.126;20.638;2023-06-26T08:59:48;57385.50;;;-144.78;40.82
55994;BME280;67425;52.126;20.638;2023-06-26T09:02:15;57410.44;;;-144.78;40.35
55994;BME280;67425;52.126;20.638;2023-06-26T09:04:40;57389.66;;;-144.78;41.23
55994;BME280;67425;52.126;20.638;2023-06-26T09:07:07;57391.75;;;-144.78;41.90
55994;BME280;67425;52.126;20.638;2023-06-26T09:09:32;57385.50;;;-144.78;40.68
55994;BME280;67425;52.126;20.638;2023-06-26T09:11:57;57395.88;;;-144.78;39.72
55994;BME280;67425;52.126;20.638;2023-06-26T09:14:23;57412.50;;;-144.78;40.25
55994;BME280;67425;52.126;20.638;2023-06-26T09:16:49;57397.97;;;-144.78;40.34
55994;BME280;67425;52.126;20.638;2023-06-26T09:19:15;57377.19;;;-144.78;40.25
55994;BME280;67425;52.126;20.638;2023-06-26T09:21:41;57383.44;;;-144.78;41.15
55994;BME280;67425;52.126;20.638;2023-06-26T09:24:08;57412.50;;;-144.78;39.52
55994;BME280;67425;52.126;20.638;2023-06-26T09:26:36;57431.19;;;-144.78;41.13
55994;BME280;67425;52.126;20.638;2023-06-26T09:29:02;57395.88;;;-144.78;41.82
55994;BME280;67425;52.126;20.638;2023-06-26T09:31:28;57379.28;;;-144.78;41.32
55994;BME280;67425;52.126;20.638;2023-06-26T09:34:00;57389.66;;;-144.78;35.45
55994;BME280;67425;52.126;20.638;2023-06-26T09:36:28;57389.66;;;-144.78;36.69
55994;BME280;67425;52.126;20.638;2023-06-26T09:38:54;57368.91;;;-144.78;37.28
55994;BME280;67425;52.126;20.638;2023-06-26T09:41:20;57462.34;;;-144.78;37.14
55994;BME280;67425;52.126;20.638;2023-06-26T09:43:49;57470.66;;;-144.78;36.39
55994;BME280;67425;52.126;20.638;2023-06-26T09:46:33;57410.44;;;-144.78;37.94
55994;BME280;67425;52.126;20.638;2023-06-26T09:49:01;57414.59;;;-144.78;36.72
55994;BME280;67425;52.126;20.638;2023-06-26T09:51:29;57402.13;;;-144.78;36.96
55994;BME280;67425;52.126;20.638;2023-06-26T09:53:55;57437.44;;;-144.78;36.36
55994;BME280;67425;52.126;20.638;2023-06-26T09:56:20;57408.34;;;-144.78;36.67
55994;BME280;67425;52.126;20.638;2023-06-26T09:58:47;57400.03;;;-144.78;36.44
55994;BME280;67425;52.126;20.638;2023-06-26T10:01:13;57410.44;;;-144.78;35.34
55994;BME280;67425;52.126;20.638;2023-06-26T10:03:39;57385.50;;;-144.78;36.04
55994;BME280;67425;52.126;20.638;2023-06-26T10:06:04;57379.28;;;-144.78;36.02
55994;BME280;67425;52.126;20.638;2023-06-26T10:08:31;57402.13;;;-144.78;34.02
55994;BME280;67425;52.126;20.638;2023-06-26T10:10:57;57402.13;;;-144.78;34.84
55994;BME280;67425;52.126;20.638;2023-06-26T10:13:26;57404.19;;;-144.78;35.12
55994;BME280;67425;52.126;20.638;2023-06-26T10:15:53;57389.66;;;-144.78;34.84
55994;BME280;67425;52.126;20.638;2023-06-26T10:18:21;57429.13;;;-144.78;34.90
55994;BME280;67425;52.126;20.638;2023-06-26T10:20:48;57381.34;;;-144.78;34.20
55994;BME280;67425;52.126;20.638;2023-06-26T10:23:16;57410.44;;;-144.78;34.20
55994;BME280;67425;52.126;20.638;2023-06-26T10:25:45;57408.34;;;-144.78;36.48
55994;BME280;67425;52.126;20.638;2023-06-26T10:28:12;57389.66;;;-144.78;33.94
55994;BME280;67425;52.126;20.638;2023-06-26T10:30:39;57402.13;;;-144.78;35.28
55994;BME280;67425;52.126;20.638;2023-06-26T10:33:05;57410.44;;;-144.78;34.99
55994;BME280;67425;52.126;20.638;2023-06-26T10:35:32;57402.13;;;-144.78;34.32
55994;BME280;67425;52.126;20.638;2023-06-26T10:38:01;57406.28;;;-144.78;33.29
55994;BME280;67425;52.126;20.638;2023-06-26T10:40:52;57387.59;;;-144.78;34.35
55994;BME280;67425;52.126;20.638;2023-06-26T10:43:17;57397.97;;;-144.78;34.48
55994;BME280;67425;52.126;20.638;2023-06-26T10:45:47;57412.50;;;-144.78;33.38
55994;BME280;67425;52.126;20.638;2023-06-26T10:48:20;57408.34;;;-144.78;33.59
55994;BME280;67425;52.126;20.638;2023-06-26T10:50:49;57410.44;;;-144.78;34.03
55994;BME280;67425;52.126;20.638;2023-06-26T10:56:03;57404.19;;;-144.78;33.29
55994;BME280;67425;52.126;20.638;2023-06-26T11:03:38;57385.50;;;-144.78;32.41
55994;BME280;67425;52.126;20.638;2023-06-26T11:06:15;57395.88;;;-144.78;32.13
55994;BME280;67425;52.126;20.638;2023-06-26T11:08:48;57377.19;;;-144.78;32.06
55994;BME280;67425;52.126;20.638;2023-06-26T11:11:14;57404.19;;;-144.78;32.59
55994;BME280;67425;52.126;20.638;2023-06-26T11:13:40;57406.28;;;-144.78;32.92
55994;BME280;67425;52.126;20.638;2023-06-26T11:16:05;57393.81;;;-144.78;33.46
55994;BME280;67425;52.126;20.638;2023-06-26T11:18:31;57416.66;;;-144.78;34.00
55994;BME280;67425;52.126;20.638;2023-06-26T11:21:05;57406.28;;;-144.78;33.08
55994;BME280;67425;52.126;20.638;2023-06-26T11:23:32;57418.72;;;-144.78;32.66
55994;BME280;67425;52.126;20.638;2023-06-26T11:26:21;57404.19;;;-144.78;33.46
55994;BME280;67425;52.126;20.638;2023-06-26T11:28:54;57395.88;;;-144.78;33.50
55994;BME280;67425;52.126;20.638;2023-06-26T11:31:35;57397.97;;;-144.78;32.82
55994;BME280;67425;52.126;20.638;2023-06-26T11:34:03;57395.88;;;-144.78;33.58
55994;BME280;67425;52.126;20.638;2023-06-26T11:36:29;57368.91;;;-144.78;34.04
55994;BME280;67425;52.126;20.638;2023-06-26T11:38:56;57379.28;;;-144.78;32.86
55994;BME280;67425;52.126;20.638;2023-06-26T11:41:32;57387.59;;;-144.78;32.17
55994;BME280;67425;52.126;20.638;2023-06-26T11:44:01;57393.81;;;-144.78;32.59
55994;BME280;67425;52.126;20.638;2023-06-26T11:46:27;57395.88;;;-144.78;33.21
55994;BME280;67425;52.126;20.638;2023-06-26T11:48:53;57364.75;;;-144.78;33.10
55994;BME280;67425;52.126;20.638;2023-06-26T11:51:19;57395.88;;;-144.78;32.03
55994;BME280;67425;52.126;20.638;2023-06-26T11:53:46;57379.28;;;-144.78;31.76
55994;BME280;67425;52.126;20.638;2023-06-26T11:56:13;57395.88;;;-144.78;33.07
55994;BME280;67425;52.126;20.638;2023-06-26T11:58:58;57400.03;;;-144.78;31.71
55994;BME280;67425;52.126;20.638;2023-06-26T12:01:33;57381.34;;;-144.78;33.04
55994;BME280;67425;52.126;20.638;2023-06-26T12:04:00;57395.88;;;-144.78;33.20
55994;BME280;67425;52.126;20.638;2023-06-26T12:06:30;57381.34;;;-144.78;31.94
55994;BME280;67425;52.126;20.638;2023-06-26T12:08:58;57387.59;;;-144.78;33.12
55994;BME280;67425;52.126;20.638;2023-06-26T12:11:24;57397.97;;;-144.78;33.06
55994;BME280;67425;52.126;20.638;2023-06-26T12:13:51;57412.50;;;-144.78;32.88
55994;BME280;67425;52.126;20.638;2023-06-26T12:16:16;57414.59;;;-144.78;33.20
55994;BME280;67425;52.126;20.638;2023-06-26T12:18:42;57395.88;;;-144.78;32.91
55994;BME280;67425;52.126;20.638;2023-06-26T12:21:07;57397.97;;;-144.78;32.32
55994;BME280;67425;52.126;20.638;2023-06-26T12:23:33;57395.88;;;-144.78;33.27
55994;BME280;67425;52.126;20.638;2023-06-26T12:26:16;57391.75;;;-144.78;32.87
55994;BME280;67425;52.126;20.638;2023-06-26T12:28:44;57385.50;;;-144.78;32.82
55994;BME280;67425;52.126;20.638;2023-06-26T12:31:16;57391.75;;;-144.78;33.12
55994;BME280;67425;52.126;20.638;2023-06-26T12:33:45;57377.19;;;-144.78;33.19
55994;BME280;67425;52.126;20.638;2023-06-26T12:36:14;57366.81;;;-144.78;32.71